sensor_id;sensor_type;location;lat;lon;timestamp;temperature;humidity
34145;HTU21D;69555;53.014;8.886;2023-10-08T00:00:40;13.04;94.91
34145;HTU21D;69555;53.014;8.886;2023-10-08T00:03:13;12.59;96.36
34145;HTU21D;69555;53.014;8.886;2023-10-08T00:05:41;12.85;95.71
34145;HTU21D;69555;53.014;8.886;2023-10-08T00:08:08;12.87;95.66
34145;HTU21D;69555;53.014;8.886;2023-10-08T00:10:36;12.45;97.41
34145;HTU21D;69555;53.014;8.886;2023-10-08T00:13:04;12.66;96.08
34145;HTU21D;69555;53.014;8.886;2023-10-08T00:15:33;12.66;96.39
34145;HTU21D;69555;53.014;8.886;2023-10-08T00:17:58;12.58;97.03
34145;HTU21D;69555;53.014;8.886;2023-10-08T00:20:26;12.65;97.00
34145;HTU21D;69555;53.014;8.886;2023-10-08T00:23:01;12.95;95.42
34145;HTU21D;69555;53.014;8.886;2023-10-08T00:25:28;13.11;94.69
34145;HTU21D;69555;53.014;8.886;2023-10-08T00:27:56;13.21;94.64
34145;HTU21D;69555;53.014;8.886;2023-10-08T00:30:21;13.26;94.27
34145;HTU21D;69555;53.014;8.886;2023-10-08T00:32:47;13.16;94.61
34145;HTU21D;69555;53.014;8.886;2023-10-08T00:35:12;13.27;94.07
34145;HTU21D;69555;53.014;8.886;2023-10-08T00:37:46;13.44;93.56
34145;HTU21D;69555;53.014;8.886;2023-10-08T00:40:13;13.51;93.14
34145;HTU21D;69555;53.014;8.886;2023-10-08T00:42:47;13.53;93.22
34145;HTU21D;69555;53.014;8.886;2023-10-08T00:45:12;13.54;92.87
34145;HTU21D;69555;53.014;8.886;2023-10-08T00:47:41;13.32;93.75
34145;HTU21D;69555;53.014;8.886;2023-10-08T00:50:12;13.29;93.88
34145;HTU21D;69555;53.014;8.886;2023-10-08T00:52:48;13.56;92.55
34145;HTU21D;69555;53.014;8.886;2023-10-08T00:55:25;13.50;92.45
34145;HTU21D;69555;53.014;8.886;2023-10-08T00:57:57;13.37;93.24
34145;HTU21D;69555;53.014;8.886;2023-10-08T01:00:24;13.49;92.49
34145;HTU21D;69555;53.014;8.886;2023-10-08T01:02:58;13.52;92.30
34145;HTU21D;69555;53.014;8.886;2023-10-08T01:05:27;13.46;92.68
34145;HTU21D;69555;53.014;8.886;2023-10-08T01:08:22;13.25;93.73
34145;HTU21D;69555;53.014;8.886;2023-10-08T01:11:18;13.40;92.81
34145;HTU21D;69555;53.014;8.886;2023-10-08T01:13:44;13.19;94.13
34145;HTU21D;69555;53.014;8.886;2023-10-08T01:16:11;13.44;93.12
34145;HTU21D;69555;53.014;8.886;2023-10-08T01:18:37;13.46;93.02
34145;HTU21D;69555;53.014;8.886;2023-10-08T01:21:08;13.33;93.62
34145;HTU21D;69555;53.014;8.886;2023-10-08T01:23:37;13.32;93.93
34145;HTU21D;69555;53.014;8.886;2023-10-08T01:26:03;13.53;93.11
34145;HTU21D;69555;53.014;8.886;2023-10-08T01:28:40;13.55;92.67
34145;HTU21D;69555;53.014;8.886;2023-10-08T01:31:06;13.61;92.05
34145;HTU21D;69555;53.014;8.886;2023-10-08T01:33:32;13.61;92.11
34145;HTU21D;69555;53.014;8.886;2023-10-08T01:36:15;13.65;92.25
34145;HTU21D;69555;53.014;8.886;2023-10-08T01:38:40;13.69;91.79
34145;HTU21D;69555;53.014;8.886;2023-10-08T01:41:07;13.50;92.46
34145;HTU21D;69555;53.014;8.886;2023-10-08T01:43:43;13.70;91.60
34145;HTU21D;69555;53.014;8.886;2023-10-08T01:46:09;13.59;92.45
34145;HTU21D;69555;53.014;8.886;2023-10-08T01:48:37;13.68;91.83
34145;HTU21D;69555;53.014;8.886;2023-10-08T01:51:03;13.65;91.79
34145;HTU21D;69555;53.014;8.886;2023-10-08T01:53:35;13.58;92.15
34145;HTU21D;69555;53.014;8.886;2023-10-08T01:56:00;13.85;90.84
34145;HTU21D;69555;53.014;8.886;2023-10-08T01:58:26;13.70;91.37
34145;HTU21D;69555;53.014;8.886;2023-10-08T02:00:54;13.64;91.70
34145;HTU21D;69555;53.014;8.886;2023-10-08T02:03:23;13.41;92.94
34145;HTU21D;69555;53.014;8.886;2023-10-08T02:05:49;13.58;92.11
34145;HTU21D;69555;53.014;8.886;2023-10-08T02:08:19;13.45;92.88
34145;HTU21D;69555;53.014;8.886;2023-10-08T02:10:44;13.66;92.09
34145;HTU21D;69555;53.014;8.886;2023-10-08T02:13:13;13.86;91.05
34145;HTU21D;69555;53.014;8.886;2023-10-08T02:15:50;13.86;90.89
34145;HTU21D;69555;53.014;8.886;2023-10-08T02:18:19;13.90;90.46
34145;HTU21D;69555;53.014;8.886;2023-10-08T02:20:45;13.85;90.95
34145;HTU21D;69555;53.014;8.886;2023-10-08T02:23:10;14.09;89.69
34145;HTU21D;69555;53.014;8.886;2023-10-08T02:25:39;14.05;89.86
34145;HTU21D;69555;53.014;8.886;2023-10-08T02:28:09;13.92;90.56
34145;HTU21D;69555;53.014;8.886;2023-10-08T02:30:35;14.01;89.99
34145;HTU21D;69555;53.014;8.886;2023-10-08T02:33:02;13.89;90.64
34145;HTU21D;69555;53.014;8.886;2023-10-08T02:35:27;13.54;92.46
34145;HTU21D;69555;53.014;8.886;2023-10-08T02:37:53;13.73;91.74
34145;HTU21D;69555;53.014;8.886;2023-10-08T02:40:20;13.79;91.52
34145;HTU21D;69555;53.014;8.886;2023-10-08T02:42:53;13.94;90.50
34145;HTU21D;69555;53.014;8.886;2023-10-08T02:45:25;13.64;92.11
34145;HTU21D;69555;53.014;8.886;2023-10-08T02:47:50;13.66;92.15
34145;HTU21D;69555;53.014;8.886;2023-10-08T02:50:18;13.79;91.53
34145;HTU21D;69555;53.014;8.886;2023-10-08T02:52:44;13.73;91.93
34145;HTU21D;69555;53.014;8.886;2023-10-08T02:55:12;13.75;91.51
34145;HTU21D;69555;53.014;8.886;2023-10-08T02:57:56;13.61;92.51
34145;HTU21D;69555;53.014;8.886;2023-10-08T03:00:21;13.65;91.95
34145;HTU21D;69555;53.014;8.886;2023-10-08T03:02:48;13.44;93.57
34145;HTU21D;69555;53.014;8.886;2023-10-08T03:05:14;13.58;92.78
34145;HTU21D;69555;53.014;8.886;2023-10-08T03:07:42;13.59;92.60
34145;HTU21D;69555;53.014;8.886;2023-10-08T03:10:08;13.61;92.64
34145;HTU21D;69555;53.014;8.886;2023-10-08T03:12:43;13.46;93.58
34145;HTU21D;69555;53.014;8.886;2023-10-08T03:15:11;13.48;93.46
34145;HTU21D;69555;53.014;8.886;2023-10-08T03:17:53;13.52;93.34
34145;HTU21D;69555;53.014;8.886;2023-10-08T03:20:19;13.22;94.92
34145;HTU21D;69555;53.014;8.886;2023-10-08T03:23:03;13.48;93.53
34145;HTU21D;69555;53.014;8.886;2023-10-08T03:25:37;13.02;95.78
34145;HTU21D;69555;53.014;8.886;2023-10-08T03:28:08;13.25;94.70
34145;HTU21D;69555;53.014;8.886;2023-10-08T03:30:34;13.26;94.49
34145;HTU21D;69555;53.014;8.886;2023-10-08T03:33:15;12.90;96.41
34145;HTU21D;69555;53.014;8.886;2023-10-08T03:35:50;13.04;95.86
34145;HTU21D;69555;53.014;8.886;2023-10-08T03:38:19;12.93;96.23
34145;HTU21D;69555;53.014;8.886;2023-10-08T03:40:56;13.17;95.10
34145;HTU21D;69555;53.014;8.886;2023-10-08T03:43:31;13.19;94.86
34145;HTU21D;69555;53.014;8.886;2023-10-08T03:46:00;12.84;96.65
34145;HTU21D;69555;53.014;8.886;2023-10-08T03:48:32;13.11;95.56
34145;HTU21D;69555;53.014;8.886;2023-10-08T03:51:02;13.09;95.46
34145;HTU21D;69555;53.014;8.886;2023-10-08T03:53:35;13.03;96.09
34145;HTU21D;69555;53.014;8.886;2023-10-08T03:56:08;13.25;94.62
34145;HTU21D;69555;53.014;8.886;2023-10-08T03:58:34;13.33;94.08
34145;HTU21D;69555;53.014;8.886;2023-10-08T04:01:06;13.22;94.78
34145;HTU21D;69555;53.014;8.886;2023-10-08T04:03:36;13.16;94.82
34145;HTU21D;69555;53.014;8.886;2023-10-08T04:06:23;13.14;95.24
34145;HTU21D;69555;53.014;8.886;2023-10-08T04:09:12;13.15;95.22
34145;HTU21D;69555;53.014;8.886;2023-10-08T04:11:43;12.76;97.19
34145;HTU21D;69555;53.014;8.886;2023-10-08T04:14:19;13.11;95.04
34145;HTU21D;69555;53.014;8.886;2023-10-08T04:16:45;12.71;97.57
34145;HTU21D;69555;53.014;8.886;2023-10-08T04:19:11;12.87;96.54
34145;HTU21D;69555;53.014;8.886;2023-10-08T04:21:40;12.97;96.32
34145;HTU21D;69555;53.014;8.886;2023-10-08T04:24:08;13.00;95.97
34145;HTU21D;69555;53.014;8.886;2023-10-08T04:26:36;13.04;95.90
34145;HTU21D;69555;53.014;8.886;2023-10-08T04:29:05;12.99;95.97
34145;HTU21D;69555;53.014;8.886;2023-10-08T04:31:33;12.81;97.07
34145;HTU21D;69555;53.014;8.886;2023-10-08T04:34:09;12.84;96.97
34145;HTU21D;69555;53.014;8.886;2023-10-08T04:36:44;12.33;99.53
34145;HTU21D;69555;53.014;8.886;2023-10-08T04:39:19;12.64;97.92
34145;HTU21D;69555;53.014;8.886;2023-10-08T04:41:52;12.70;97.97
34145;HTU21D;69555;53.014;8.886;2023-10-08T04:44:19;12.57;98.58
34145;HTU21D;69555;53.014;8.886;2023-10-08T04:46:47;12.76;97.58
34145;HTU21D;69555;53.014;8.886;2023-10-08T04:49:14;13.02;96.29
34145;HTU21D;69555;53.014;8.886;2023-10-08T04:51:55;12.56;99.06
34145;HTU21D;69555;53.014;8.886;2023-10-08T04:54:25;12.61;98.16
34145;HTU21D;69555;53.014;8.886;2023-10-08T04:56:58;12.80;97.49
34145;HTU21D;69555;53.014;8.886;2023-10-08T04:59:26;12.91;96.72
34145;HTU21D;69555;53.014;8.886;2023-10-08T05:01:58;12.67;98.07
34145;HTU21D;69555;53.014;8.886;2023-10-08T05:04:43;12.51;98.61
34145;HTU21D;69555;53.014;8.886;2023-10-08T05:07:31;12.67;98.35
34145;HTU21D;69555;53.014;8.886;2023-10-08T05:10:26;12.73;97.90
34145;HTU21D;69555;53.014;8.886;2023-10-08T05:12:56;12.69;98.17
34145;HTU21D;69555;53.014;8.886;2023-10-08T05:15:48;12.66;98.82
34145;HTU21D;69555;53.014;8.886;2023-10-08T05:18:25;12.63;98.55
34145;HTU21D;69555;53.014;8.886;2023-10-08T05:21:11;12.78;98.13
34145;HTU21D;69555;53.014;8.886;2023-10-08T05:23:53;12.86;97.50
34145;HTU21D;69555;53.014;8.886;2023-10-08T05:26:34;12.89;97.72
34145;HTU21D;69555;53.014;8.886;2023-10-08T05:29:07;12.86;97.52
34145;HTU21D;69555;53.014;8.886;2023-10-08T05:31:53;12.93;97.20
34145;HTU21D;69555;53.014;8.886;2023-10-08T05:34:38;12.82;97.81
34145;HTU21D;69555;53.014;8.886;2023-10-08T05:37:16;12.89;97.67
34145;HTU21D;69555;53.014;8.886;2023-10-08T05:39:58;12.43;99.35
34145;HTU21D;69555;53.014;8.886;2023-10-08T05:42:37;12.61;98.67
34145;HTU21D;69555;53.014;8.886;2023-10-08T05:45:11;12.86;97.82
34145;HTU21D;69555;53.014;8.886;2023-10-08T05:47:36;12.73;98.52
34145;HTU21D;69555;53.014;8.886;2023-10-08T05:50:03;12.97;96.94
34145;HTU21D;69555;53.014;8.886;2023-10-08T05:52:45;13.18;96.07
34145;HTU21D;69555;53.014;8.886;2023-10-08T05:55:24;13.27;95.58
34145;HTU21D;69555;53.014;8.886;2023-10-08T05:58:03;13.24;95.46
34145;HTU21D;69555;53.014;8.886;2023-10-08T06:00:45;12.94;96.87
34145;HTU21D;69555;53.014;8.886;2023-10-08T06:03:28;13.01;96.85
34145;HTU21D;69555;53.014;8.886;2023-10-08T06:06:25;13.37;95.00
34145;HTU21D;69555;53.014;8.886;2023-10-08T06:09:03;13.29;95.36
34145;HTU21D;69555;53.014;8.886;2023-10-08T06:11:46;13.36;94.98
34145;HTU21D;69555;53.014;8.886;2023-10-08T06:14:32;13.36;95.20
34145;HTU21D;69555;53.014;8.886;2023-10-08T06:17:16;13.36;95.05
34145;HTU21D;69555;53.014;8.886;2023-10-08T06:20:10;13.58;94.08
34145;HTU21D;69555;53.014;8.886;2023-10-08T06:22:42;13.56;94.52
34145;HTU21D;69555;53.014;8.886;2023-10-08T06:25:08;13.84;93.18
34145;HTU21D;69555;53.014;8.886;2023-10-08T06:27:48;13.69;93.60
34145;HTU21D;69555;53.014;8.886;2023-10-08T06:30:13;13.96;92.34
34145;HTU21D;69555;53.014;8.886;2023-10-08T06:32:44;13.86;93.11
34145;HTU21D;69555;53.014;8.886;2023-10-08T06:35:10;14.00;92.62
34145;HTU21D;69555;53.014;8.886;2023-10-08T06:37:44;14.34;91.20
34145;HTU21D;69555;53.014;8.886;2023-10-08T06:40:11;14.56;89.97
34145;HTU21D;69555;53.014;8.886;2023-10-08T06:42:56;14.78;89.54
34145;HTU21D;69555;53.014;8.886;2023-10-08T06:45:22;14.75;89.10
34145;HTU21D;69555;53.014;8.886;2023-10-08T06:47:48;15.13;87.96
34145;HTU21D;69555;53.014;8.886;2023-10-08T06:50:15;15.75;84.93
34145;HTU21D;69555;53.014;8.886;2023-10-08T06:52:41;15.43;85.90
34145;HTU21D;69555;53.014;8.886;2023-10-08T06:55:09;15.82;84.13
34145;HTU21D;69555;53.014;8.886;2023-10-08T06:57:37;16.62;80.87
34145;HTU21D;69555;53.014;8.886;2023-10-08T07:00:04;16.91;79.71
34145;HTU21D;69555;53.014;8.886;2023-10-08T07:02:37;16.69;79.20
34145;HTU21D;69555;53.014;8.886;2023-10-08T07:05:05;17.20;77.95
34145;HTU21D;69555;53.014;8.886;2023-10-08T07:07:34;16.30;81.80
34145;HTU21D;69555;53.014;8.886;2023-10-08T07:10:05;16.73;79.66
34145;HTU21D;69555;53.014;8.886;2023-10-08T07:12:36;16.58;80.11
34145;HTU21D;69555;53.014;8.886;2023-10-08T07:15:01;16.52;80.17
34145;HTU21D;69555;53.014;8.886;2023-10-08T07:17:30;15.58;84.69
34145;HTU21D;69555;53.014;8.886;2023-10-08T07:20:06;15.54;84.46
34145;HTU21D;69555;53.014;8.886;2023-10-08T07:22:38;15.69;83.81
34145;HTU21D;69555;53.014;8.886;2023-10-08T07:25:05;15.65;84.31
34145;HTU21D;69555;53.014;8.886;2023-10-08T07:27:33;15.96;83.07
34145;HTU21D;69555;53.014;8.886;2023-10-08T07:30:03;16.27;82.09
34145;HTU21D;69555;53.014;8.886;2023-10-08T07:32:36;16.85;80.01
34145;HTU21D;69555;53.014;8.886;2023-10-08T07:35:04;16.58;81.06
34145;HTU21D;69555;53.014;8.886;2023-10-08T07:37:51;17.06;79.39
34145;HTU21D;69555;53.014;8.886;2023-10-08T07:40:19;17.11;78.72
34145;HTU21D;69555;53.014;8.886;2023-10-08T07:42:46;17.79;76.79
34145;HTU21D;69555;53.014;8.886;2023-10-08T07:45:19;18.84;72.45
34145;HTU21D;69555;53.014;8.886;2023-10-08T07:47:47;18.96;71.13
34145;HTU21D;69555;53.014;8.886;2023-10-08T07:50:13;18.71;71.58
34145;HTU21D;69555;53.014;8.886;2023-10-08T07:52:41;17.79;74.16
34145;HTU21D;69555;53.014;8.886;2023-10-08T07:55:10;17.91;75.76
34145;HTU21D;69555;53.014;8.886;2023-10-08T07:57:35;19.24;70.96
34145;HTU21D;69555;53.014;8.886;2023-10-08T08:00:01;18.77;71.55
34145;HTU21D;69555;53.014;8.886;2023-10-08T08:02:43;19.75;68.41
34145;HTU21D;69555;53.014;8.886;2023-10-08T08:05:09;20.33;66.94
34145;HTU21D;69555;53.014;8.886;2023-10-08T08:07:34;20.55;64.49
34145;HTU21D;69555;53.014;8.886;2023-10-08T08:10:00;20.14;65.88
34145;HTU21D;69555;53.014;8.886;2023-10-08T08:12:27;18.97;71.32
34145;HTU21D;69555;53.014;8.886;2023-10-08T08:14:54;17.81;75.02
34145;HTU21D;69555;53.014;8.886;2023-10-08T08:17:20;17.65;75.19
34145;HTU21D;69555;53.014;8.886;2023-10-08T08:19:48;17.69;75.29
34145;HTU21D;69555;53.014;8.886;2023-10-08T08:22:18;17.82;74.66
34145;HTU21D;69555;53.014;8.886;2023-10-08T08:24:51;18.35;71.82
34145;HTU21D;69555;53.014;8.886;2023-10-08T08:27:21;18.73;71.65
34145;HTU21D;69555;53.014;8.886;2023-10-08T08:29:51;18.62;71.40
34145;HTU21D;69555;53.014;8.886;2023-10-08T08:32:21;19.01;69.16
34145;HTU21D;69555;53.014;8.886;2023-10-08T08:34:47;17.95;71.20
34145;HTU21D;69555;53.014;8.886;2023-10-08T08:37:16;18.43;71.80
34145;HTU21D;69555;53.014;8.886;2023-10-08T08:39:41;19.28;68.87
34145;HTU21D;69555;53.014;8.886;2023-10-08T08:42:07;18.84;67.78
34145;HTU21D;69555;53.014;8.886;2023-10-08T08:44:41;18.81;66.46
34145;HTU21D;69555;53.014;8.886;2023-10-08T08:47:13;18.87;68.74
34145;HTU21D;69555;53.014;8.886;2023-10-08T08:49:46;18.50;69.00
34145;HTU21D;69555;53.014;8.886;2023-10-08T08:52:13;19.12;67.19
34145;HTU21D;69555;53.014;8.886;2023-10-08T08:54:40;18.78;65.94
34145;HTU21D;69555;53.014;8.886;2023-10-08T08:57:07;19.88;62.66
34145;HTU21D;69555;53.014;8.886;2023-10-08T08:59:41;18.12;67.16
34145;HTU21D;69555;53.014;8.886;2023-10-08T09:02:11;18.74;64.06
34145;HTU21D;69555;53.014;8.886;2023-10-08T09:04:39;18.97;64.85
34145;HTU21D;69555;53.014;8.886;2023-10-08T09:07:04;18.83;63.65
34145;HTU21D;69555;53.014;8.886;2023-10-08T09:09:34;18.74;63.12
34145;HTU21D;69555;53.014;8.886;2023-10-08T09:12:06;18.93;61.26
34145;HTU21D;69555;53.014;8.886;2023-10-08T09:14:35;18.92;61.63
34145;HTU21D;69555;53.014;8.886;2023-10-08T09:17:01;18.81;64.02
34145;HTU21D;69555;53.014;8.886;2023-10-08T09:19:29;18.91;62.28
34145;HTU21D;69555;53.014;8.886;2023-10-08T09:22:08;18.50;61.35
34145;HTU21D;69555;53.014;8.886;2023-10-08T09:24:36;17.59;66.88
34145;HTU21D;69555;53.014;8.886;2023-10-08T09:27:06;18.02;64.24
34145;HTU21D;69555;53.014;8.886;2023-10-08T09:29:33;17.85;64.33
34145;HTU21D;69555;53.014;8.886;2023-10-08T09:32:05;18.26;63.34
34145;HTU21D;69555;53.014;8.886;2023-10-08T09:34:31;17.52;63.02
34145;HTU21D;69555;53.014;8.886;2023-10-08T09:36:58;17.44;64.23
34145;HTU21D;69555;53.014;8.886;2023-10-08T09:39:27;17.85;61.05
34145;HTU21D;69555;53.014;8.886;2023-10-08T09:41:55;18.04;64.72
34145;HTU21D;69555;53.014;8.886;2023-10-08T09:44:22;17.59;63.69
34145;HTU21D;69555;53.014;8.886;2023-10-08T09:47:13;17.60;61.79
34145;HTU21D;69555;53.014;8.886;2023-10-08T09:49:48;17.38;63.34
34145;HTU21D;69555;53.014;8.886;2023-10-08T09:52:16;17.67;63.32
34145;HTU21D;69555;53.014;8.886;2023-10-08T09:54:50;17.14;66.14
34145;HTU21D;69555;53.014;8.886;2023-10-08T09:57:20;17.62;63.98
34145;HTU21D;69555;53.014;8.886;2023-10-08T09:59:47;18.07;63.86
34145;HTU21D;69555;53.014;8.886;2023-10-08T10:02:14;18.43;59.80
34145;HTU21D;69555;53.014;8.886;2023-10-08T10:04:44;18.57;58.38
34145;HTU21D;69555;53.014;8.886;2023-10-08T10:07:11;17.65;61.13
34145;HTU21D;69555;53.014;8.886;2023-10-08T10:09:38;17.58;61.14
34145;HTU21D;69555;53.014;8.886;2023-10-08T10:12:05;17.73;58.62
34145;HTU21D;69555;53.014;8.886;2023-10-08T10:15:08;17.94;58.97
34145;HTU21D;69555;53.014;8.886;2023-10-08T10:17:27;18.33;59.60
34145;HTU21D;69555;53.014;8.886;2023-10-08T10:20:01;18.15;59.73
34145;HTU21D;69555;53.014;8.886;2023-10-08T10:22:34;17.99;59.68
34145;HTU21D;69555;53.014;8.886;2023-10-08T10:25:03;18.17;57.99
34145;HTU21D;69555;53.014;8.886;2023-10-08T10:27:41;17.73;59.28
34145;HTU21D;69555;53.014;8.886;2023-10-08T10:30:08;18.24;59.07
34145;HTU21D;69555;53.014;8.886;2023-10-08T10:32:44;17.95;57.57
34145;HTU21D;69555;53.014;8.886;2023-10-08T10:35:14;17.93;57.99
34145;HTU21D;69555;53.014;8.886;2023-10-08T10:37:43;17.72;57.06
34145;HTU21D;69555;53.014;8.886;2023-10-08T10:40:20;17.73;57.43
34145;HTU21D;69555;53.014;8.886;2023-10-08T10:42:56;17.52;58.90
34145;HTU21D;69555;53.014;8.886;2023-10-08T10:45:22;17.46;62.86
34145;HTU21D;69555;53.014;8.886;2023-10-08T10:48:08;17.51;64.41
34145;HTU21D;69555;53.014;8.886;2023-10-08T10:50:41;17.97;60.67
34145;HTU21D;69555;53.014;8.886;2023-10-08T10:53:27;18.09;61.47
34145;HTU21D;69555;53.014;8.886;2023-10-08T10:55:54;17.91;60.22
34145;HTU21D;69555;53.014;8.886;2023-10-08T10:58:35;18.49;61.33
34145;HTU21D;69555;53.014;8.886;2023-10-08T11:01:06;18.11;57.80
34145;HTU21D;69555;53.014;8.886;2023-10-08T11:03:58;17.85;55.81
34145;HTU21D;69555;53.014;8.886;2023-10-08T11:06:24;17.64;59.25
34145;HTU21D;69555;53.014;8.886;2023-10-08T11:08:51;17.67;59.38
34145;HTU21D;69555;53.014;8.886;2023-10-08T11:11:18;18.28;59.76
34145;HTU21D;69555;53.014;8.886;2023-10-08T11:13:44;18.54;58.38
34145;HTU21D;69555;53.014;8.886;2023-10-08T11:16:16;18.76;53.59
34145;HTU21D;69555;53.014;8.886;2023-10-08T11:18:45;19.02;51.72
34145;HTU21D;69555;53.014;8.886;2023-10-08T11:21:16;18.32;55.23
34145;HTU21D;69555;53.014;8.886;2023-10-08T11:23:47;18.23;54.06
34145;HTU21D;69555;53.014;8.886;2023-10-08T11:26:18;18.26;55.01
34145;HTU21D;69555;53.014;8.886;2023-10-08T11:28:44;17.68;55.31
34145;HTU21D;69555;53.014;8.886;2023-10-08T11:31:14;17.83;56.32
34145;HTU21D;69555;53.014;8.886;2023-10-08T11:33:41;17.75;56.57
34145;HTU21D;69555;53.014;8.886;2023-10-08T11:36:09;17.82;57.06
34145;HTU21D;69555;53.014;8.886;2023-10-08T11:38:47;17.80;56.39
34145;HTU21D;69555;53.014;8.886;2023-10-08T11:41:18;18.08;55.11
34145;HTU21D;69555;53.014;8.886;2023-10-08T11:43:51;17.89;55.77
34145;HTU21D;69555;53.014;8.886;2023-10-08T11:46:27;17.37;58.12
34145;HTU21D;69555;53.014;8.886;2023-10-08T11:48:54;17.98;56.77
34145;HTU21D;69555;53.014;8.886;2023-10-08T11:51:24;18.11;55.90
34145;HTU21D;69555;53.014;8.886;2023-10-08T11:53:50;17.58;59.10
34145;HTU21D;69555;53.014;8.886;2023-10-08T11:56:17;17.76;57.11
34145;HTU21D;69555;53.014;8.886;2023-10-08T11:58:44;17.75;57.39
34145;HTU21D;69555;53.014;8.886;2023-10-08T12:01:11;17.90;53.90
34145;HTU21D;69555;53.014;8.886;2023-10-08T12:03:46;17.61;54.58
34145;HTU21D;69555;53.014;8.886;2023-10-08T12:06:15;17.64;55.07
34145;HTU21D;69555;53.014;8.886;2023-10-08T12:08:42;18.09;55.97
34145;HTU21D;69555;53.014;8.886;2023-10-08T12:11:07;17.67;54.60
34145;HTU21D;69555;53.014;8.886;2023-10-08T12:13:46;17.72;57.18
34145;HTU21D;69555;53.014;8.886;2023-10-08T12:16:15;17.39;56.47
34145;HTU21D;69555;53.014;8.886;2023-10-08T12:18:46;17.23;56.64
34145;HTU21D;69555;53.014;8.886;2023-10-08T12:21:17;17.37;57.02
34145;HTU21D;69555;53.014;8.886;2023-10-08T12:23:43;17.16;59.00
34145;HTU21D;69555;53.014;8.886;2023-10-08T12:26:09;16.86;60.14
34145;HTU21D;69555;53.014;8.886;2023-10-08T12:28:35;17.31;58.72
34145;HTU21D;69555;53.014;8.886;2023-10-08T12:31:02;17.52;60.42
34145;HTU21D;69555;53.014;8.886;2023-10-08T12:33:29;17.98;57.20
34145;HTU21D;69555;53.014;8.886;2023-10-08T12:35:55;18.47;56.55
34145;HTU21D;69555;53.014;8.886;2023-10-08T12:38:22;18.14;55.97
34145;HTU21D;69555;53.014;8.886;2023-10-08T12:40:48;18.33;55.44
34145;HTU21D;69555;53.014;8.886;2023-10-08T12:43:22;17.87;57.51
34145;HTU21D;69555;53.014;8.886;2023-10-08T12:45:51;17.52;59.16
34145;HTU21D;69555;53.014;8.886;2023-10-08T12:48:25;18.14;58.36
34145;HTU21D;69555;53.014;8.886;2023-10-08T12:50:54;18.29;57.29
34145;HTU21D;69555;53.014;8.886;2023-10-08T12:53:24;18.28;57.51
34145;HTU21D;69555;53.014;8.886;2023-10-08T12:55:55;17.32;58.43
34145;HTU21D;69555;53.014;8.886;2023-10-08T12:58:22;17.50;58.46
34145;HTU21D;69555;53.014;8.886;2023-10-08T13:00:55;17.74;58.99
34145;HTU21D;69555;53.014;8.886;2023-10-08T13:03:25;17.96;60.13
34145;HTU21D;69555;53.014;8.886;2023-10-08T13:05:51;17.69;58.41
34145;HTU21D;69555;53.014;8.886;2023-10-08T13:08:20;17.78;59.01
34145;HTU21D;69555;53.014;8.886;2023-10-08T13:10:46;18.08;58.76
34145;HTU21D;69555;53.014;8.886;2023-10-08T13:13:12;18.33;59.00
34145;HTU21D;69555;53.014;8.886;2023-10-08T13:15:39;18.18;57.78
34145;HTU21D;69555;53.014;8.886;2023-10-08T13:18:08;18.47;55.90
34145;HTU21D;69555;53.014;8.886;2023-10-08T13:20:34;17.98;56.32
34145;HTU21D;69555;53.014;8.886;2023-10-08T13:23:03;18.06;57.15
34145;HTU21D;69555;53.014;8.886;2023-10-08T13:25:31;18.76;57.82
34145;HTU21D;69555;53.014;8.886;2023-10-08T13:28:01;18.58;59.49
34145;HTU21D;69555;53.014;8.886;2023-10-08T13:30:27;18.25;57.79
34145;HTU21D;69555;53.014;8.886;2023-10-08T13:32:54;18.78;56.22
34145;HTU21D;69555;53.014;8.886;2023-10-08T13:35:20;19.26;53.42
34145;HTU21D;69555;53.014;8.886;2023-10-08T13:37:46;19.24;53.78
34145;HTU21D;69555;53.014;8.886;2023-10-08T13:40:13;18.89;55.78
34145;HTU21D;69555;53.014;8.886;2023-10-08T13:42:44;19.22;59.84
34145;HTU21D;69555;53.014;8.886;2023-10-08T13:45:11;18.68;59.80
34145;HTU21D;69555;53.014;8.886;2023-10-08T13:47:52;18.08;61.26
34145;HTU21D;69555;53.014;8.886;2023-10-08T13:50:19;18.78;59.11
34145;HTU21D;69555;53.014;8.886;2023-10-08T13:52:49;18.61;59.03
34145;HTU21D;69555;53.014;8.886;2023-10-08T13:55:16;18.27;59.34
34145;HTU21D;69555;53.014;8.886;2023-10-08T13:57:45;18.51;57.19
34145;HTU21D;69555;53.014;8.886;2023-10-08T14:00:15;18.55;58.49
34145;HTU21D;69555;53.014;8.886;2023-10-08T14:02:42;19.17;56.55
34145;HTU21D;69555;53.014;8.886;2023-10-08T14:05:10;18.54;56.82
34145;HTU21D;69555;53.014;8.886;2023-10-08T14:07:35;18.00;58.61
34145;HTU21D;69555;53.014;8.886;2023-10-08T14:10:01;18.41;57.84
34145;HTU21D;69555;53.014;8.886;2023-10-08T14:12:33;18.00;61.18
34145;HTU21D;69555;53.014;8.886;2023-10-08T14:15:03;17.52;60.99
34145;HTU21D;69555;53.014;8.886;2023-10-08T14:17:32;17.94;60.45
34145;HTU21D;69555;53.014;8.886;2023-10-08T14:20:13;17.80;59.63
34145;HTU21D;69555;53.014;8.886;2023-10-08T14:22:40;17.78;59.41
34145;HTU21D;69555;53.014;8.886;2023-10-08T14:25:09;18.04;59.55
34145;HTU21D;69555;53.014;8.886;2023-10-08T14:27:39;17.65;60.16
34145;HTU21D;69555;53.014;8.886;2023-10-08T14:30:17;17.74;58.44
34145;HTU21D;69555;53.014;8.886;2023-10-08T14:32:46;17.70;59.04
34145;HTU21D;69555;53.014;8.886;2023-10-08T14:35:13;17.63;60.09
34145;HTU21D;69555;53.014;8.886;2023-10-08T14:37:57;17.55;62.30
34145;HTU21D;69555;53.014;8.886;2023-10-08T14:40:41;17.54;58.88
34145;HTU21D;69555;53.014;8.886;2023-10-08T14:43:25;17.95;58.17
34145;HTU21D;69555;53.014;8.886;2023-10-08T14:45:50;18.07;58.65
34145;HTU21D;69555;53.014;8.886;2023-10-08T14:48:18;18.19;58.13
34145;HTU21D;69555;53.014;8.886;2023-10-08T14:50:43;18.24;56.96
34145;HTU21D;69555;53.014;8.886;2023-10-08T14:53:08;18.00;57.70
34145;HTU21D;69555;53.014;8.886;2023-10-08T14:55:37;18.24;55.95
34145;HTU21D;69555;53.014;8.886;2023-10-08T14:58:04;17.98;58.67
34145;HTU21D;69555;53.014;8.886;2023-10-08T15:00:34;17.66;57.48
34145;HTU21D;69555;53.014;8.886;2023-10-08T15:03:01;17.50;58.82
34145;HTU21D;69555;53.014;8.886;2023-10-08T15:05:28;17.65;58.96
34145;HTU21D;69555;53.014;8.886;2023-10-08T15:07:54;17.51;60.28
34145;HTU21D;69555;53.014;8.886;2023-10-08T15:10:20;17.58;59.44
34145;HTU21D;69555;53.014;8.886;2023-10-08T15:12:49;17.54;60.07
34145;HTU21D;69555;53.014;8.886;2023-10-08T15:15:15;17.59;59.44
34145;HTU21D;69555;53.014;8.886;2023-10-08T15:17:45;17.55;60.00
34145;HTU21D;69555;53.014;8.886;2023-10-08T15:20:12;17.45;60.35
34145;HTU21D;69555;53.014;8.886;2023-10-08T15:22:43;17.06;59.66
34145;HTU21D;69555;53.014;8.886;2023-10-08T15:25:11;16.95;60.77
34145;HTU21D;69555;53.014;8.886;2023-10-08T15:27:41;17.22;59.74
34145;HTU21D;69555;53.014;8.886;2023-10-08T15:30:11;17.08;62.08
34145;HTU21D;69555;53.014;8.886;2023-10-08T15:32:38;17.14;62.17
34145;HTU21D;69555;53.014;8.886;2023-10-08T15:35:06;16.82;61.57
34145;HTU21D;69555;53.014;8.886;2023-10-08T15:37:35;16.76;61.89